sensor_id;sensor_type;location;lat;lon;timestamp;P1;durP1;ratioP1;P2;durP2;ratioP2
47239;SDS011;32978;53.586;10.052;2023-07-20T00:01:11;8.00;;;7.40;;
47239;SDS011;32978;53.586;10.052;2023-07-20T00:06:08;6.90;;;6.30;;
47239;SDS011;32978;53.586;10.052;2023-07-20T00:11:04;7.13;;;6.63;;
47239;SDS011;32978;53.586;10.052;2023-07-20T00:16:00;6.93;;;6.43;;
47239;SDS011;32978;53.586;10.052;2023-07-20T00:21:01;7.47;;;6.88;;
47239;SDS011;32978;53.586;10.052;2023-07-20T00:25:58;7.75;;;7.15;;
47239;SDS011;32978;53.586;10.052;2023-07-20T00:30:54;7.85;;;6.57;;
47239;SDS011;32978;53.586;10.052;2023-07-20T00:35:51;6.82;;;6.22;;
47239;SDS011;32978;53.586;10.052;2023-07-20T00:40:47;6.70;;;6.20;;
47239;SDS011;32978;53.586;10.052;2023-07-20T00:45:44;7.90;;;7.30;;
47239;SDS011;32978;53.586;10.052;2023-07-20T00:50:40;7.57;;;6.97;;
47239;SDS011;32978;53.586;10.052;2023-07-20T00:55:37;7.45;;;6.85;;
47239;SDS011;32978;53.586;10.052;2023-07-20T01:00:34;9.43;;;7.97;;
47239;SDS011;32978;53.586;10.052;2023-07-20T01:05:33;8.23;;;7.53;;
47239;SDS011;32978;53.586;10.052;2023-07-20T01:10:33;8.70;;;7.95;;
47239;SDS011;32978;53.586;10.052;2023-07-20T01:15:35;9.60;;;8.70;;
47239;SDS011;32978;53.586;10.052;2023-07-20T01:20:32;9.15;;;8.45;;
47239;SDS011;32978;53.586;10.052;2023-07-20T01:35:47;10.23;;;9.52;;
47239;SDS011;32978;53.586;10.052;2023-07-20T01:40:44;10.98;;;10.18;;
47239;SDS011;32978;53.586;10.052;2023-07-20T01:45:41;10.90;;;10.00;;
47239;SDS011;32978;53.586;10.052;2023-07-20T01:50:37;11.57;;;10.70;;
47239;SDS011;32978;53.586;10.052;2023-07-20T01:55:33;10.98;;;10.05;;
47239;SDS011;32978;53.586;10.052;2023-07-20T02:00:29;11.63;;;10.77;;
47239;SDS011;32978;53.586;10.052;2023-07-20T02:05:26;12.50;;;11.60;;
47239;SDS011;32978;53.586;10.052;2023-07-20T02:10:23;12.35;;;11.20;;
47239;SDS011;32978;53.586;10.052;2023-07-20T02:15:19;13.27;;;12.18;;
47239;SDS011;32978;53.586;10.052;2023-07-20T02:20:15;14.05;;;12.95;;
47239;SDS011;32978;53.586;10.052;2023-07-20T02:25:12;12.93;;;11.85;;
47239;SDS011;32978;53.586;10.052;2023-07-20T02:30:08;12.68;;;11.77;;
47239;SDS011;32978;53.586;10.052;2023-07-20T02:35:05;12.82;;;11.98;;
47239;SDS011;32978;53.586;10.052;2023-07-20T02:40:02;13.60;;;12.70;;
47239;SDS011;32978;53.586;10.052;2023-07-20T02:45:01;12.52;;;11.52;;
47239;SDS011;32978;53.586;10.052;2023-07-20T02:49:57;13.20;;;11.93;;
47239;SDS011;32978;53.586;10.052;2023-07-20T02:54:53;13.60;;;12.70;;
47239;SDS011;32978;53.586;10.052;2023-07-20T02:59:50;12.65;;;11.82;;
47239;SDS011;32978;53.586;10.052;2023-07-20T03:04:46;13.32;;;12.32;;
47239;SDS011;32978;53.586;10.052;2023-07-20T03:09:42;13.23;;;12.32;;
47239;SDS011;32978;53.586;10.052;2023-07-20T03:14:39;14.20;;;13.05;;
47239;SDS011;32978;53.586;10.052;2023-07-20T03:19:35;12.57;;;11.70;;
47239;SDS011;32978;53.586;10.052;2023-07-20T03:24:32;11.23;;;10.43;;
47239;SDS011;32978;53.586;10.052;2023-07-20T03:29:30;13.02;;;11.77;;
47239;SDS011;32978;53.586;10.052;2023-07-20T03:34:27;13.02;;;12.18;;
47239;SDS011;32978;53.586;10.052;2023-07-20T03:39:23;13.63;;;12.63;;
47239;SDS011;32978;53.586;10.052;2023-07-20T03:44:20;14.43;;;13.43;;
47239;SDS011;32978;53.586;10.052;2023-07-20T03:49:16;13.73;;;12.82;;
47239;SDS011;32978;53.586;10.052;2023-07-20T03:54:12;13.65;;;12.45;;
47239;SDS011;32978;53.586;10.052;2023-07-20T03:59:09;12.88;;;11.98;;
47239;SDS011;32978;53.586;10.052;2023-07-20T04:04:07;12.85;;;11.95;;
47239;SDS011;32978;53.586;10.052;2023-07-20T04:09:04;12.15;;;11.35;;
47239;SDS011;32978;53.586;10.052;2023-07-20T04:14:01;12.73;;;11.75;;
47239;SDS011;32978;53.586;10.052;2023-07-20T04:18:57;13.25;;;12.25;;
47239;SDS011;32978;53.586;10.052;2023-07-20T04:23:54;13.50;;;12.65;;
47239;SDS011;32978;53.586;10.052;2023-07-20T04:28:50;13.68;;;12.77;;
47239;SDS011;32978;53.586;10.052;2023-07-20T04:33:48;13.18;;;12.10;;
47239;SDS011;32978;53.586;10.052;2023-07-20T04:38:45;13.85;;;12.95;;
47239;SDS011;32978;53.586;10.052;2023-07-20T04:43:42;12.98;;;12.18;;
47239;SDS011;32978;53.586;10.052;2023-07-20T04:48:39;13.07;;;12.18;;
47239;SDS011;32978;53.586;10.052;2023-07-20T04:53:37;12.65;;;11.85;;
47239;SDS011;32978;53.586;10.052;2023-07-20T04:58:33;13.48;;;12.57;;
47239;SDS011;32978;53.586;10.052;2023-07-20T05:03:29;13.25;;;12.40;;
47239;SDS011;32978;53.586;10.052;2023-07-20T05:08:26;12.07;;;11.25;;
47239;SDS011;32978;53.586;10.052;2023-07-20T05:13:23;12.80;;;11.90;;
47239;SDS011;32978;53.586;10.052;2023-07-20T05:18:20;12.45;;;11.48;;
47239;SDS011;32978;53.586;10.052;2023-07-20T05:23:19;11.52;;;10.82;;
47239;SDS011;32978;53.586;10.052;2023-07-20T05:28:16;11.50;;;10.80;;
47239;SDS011;32978;53.586;10.052;2023-07-20T05:33:12;12.10;;;11.20;;
47239;SDS011;32978;53.586;10.052;2023-07-20T05:38:09;12.18;;;11.38;;
47239;SDS011;32978;53.586;10.052;2023-07-20T05:43:05;13.23;;;12.23;;
47239;SDS011;32978;53.586;10.052;2023-07-20T05:48:01;12.88;;;12.00;;
47239;SDS011;32978;53.586;10.052;2023-07-20T05:52:58;12.35;;;11.55;;
47239;SDS011;32978;53.586;10.052;2023-07-20T05:57:54;12.95;;;12.05;;
47239;SDS011;32978;53.586;10.052;2023-07-20T06:02:52;12.32;;;11.30;;
47239;SDS011;32978;53.586;10.052;2023-07-20T06:07:49;12.38;;;11.57;;
47239;SDS011;32978;53.586;10.052;2023-07-20T06:12:45;11.38;;;10.57;;
47239;SDS011;32978;53.586;10.052;2023-07-20T06:17:42;11.73;;;10.90;;
47239;SDS011;32978;53.586;10.052;2023-07-20T06:22:38;10.60;;;9.80;;
47239;SDS011;32978;53.586;10.052;2023-07-20T06:27:34;10.00;;;9.27;;
47239;SDS011;32978;53.586;10.052;2023-07-20T06:32:31;10.45;;;9.63;;
47239;SDS011;32978;53.586;10.052;2023-07-20T06:37:27;10.30;;;9.60;;
47239;SDS011;32978;53.586;10.052;2023-07-20T06:42:24;9.43;;;8.48;;
47239;SDS011;32978;53.586;10.052;2023-07-20T06:47:21;7.80;;;7.15;;
47239;SDS011;32978;53.586;10.052;2023-07-20T06:52:17;7.40;;;6.70;;
47239;SDS011;32978;53.586;10.052;2023-07-20T06:57:13;7.22;;;6.63;;
47239;SDS011;32978;53.586;10.052;2023-07-20T07:02:14;7.20;;;6.00;;
47239;SDS011;32978;53.586;10.052;2023-07-20T07:07:10;7.07;;;6.05;;
47239;SDS011;32978;53.586;10.052;2023-07-20T07:12:07;6.47;;;5.82;;
47239;SDS011;32978;53.586;10.052;2023-07-20T07:17:03;7.38;;;6.55;;
47239;SDS011;32978;53.586;10.052;2023-07-20T07:22:01;8.98;;;6.40;;
47239;SDS011;32978;53.586;10.052;2023-07-20T07:26:58;5.75;;;5.22;;
47239;SDS011;32978;53.586;10.052;2023-07-20T07:31:54;6.82;;;5.40;;
47239;SDS011;32978;53.586;10.052;2023-07-20T07:36:50;6.43;;;5.70;;
47239;SDS011;32978;53.586;10.052;2023-07-20T07:41:47;6.57;;;5.95;;
47239;SDS011;32978;53.586;10.052;2023-07-20T07:46:43;7.60;;;6.70;;
47239;SDS011;32978;53.586;10.052;2023-07-20T07:51:40;8.68;;;6.97;;
47239;SDS011;32978;53.586;10.052;2023-07-20T07:56:36;7.53;;;6.78;;
47239;SDS011;32978;53.586;10.052;2023-07-20T08:01:32;8.43;;;7.38;;
47239;SDS011;32978;53.586;10.052;2023-07-20T08:06:29;14.07;;;6.65;;
47239;SDS011;32978;53.586;10.052;2023-07-20T08:11:25;10.00;;;8.52;;
47239;SDS011;32978;53.586;10.052;2023-07-20T08:16:21;9.52;;;8.15;;
47239;SDS011;32978;53.586;10.052;2023-07-20T08:21:18;8.65;;;7.65;;
47239;SDS011;32978;53.586;10.052;2023-07-20T08:26:15;10.43;;;8.52;;
47239;SDS011;32978;53.586;10.052;2023-07-20T08:31:11;9.27;;;7.20;;
47239;SDS011;32978;53.586;10.052;2023-07-20T08:36:07;11.98;;;8.50;;
47239;SDS011;32978;53.586;10.052;2023-07-20T08:41:07;10.00;;;7.88;;
47239;SDS011;32978;53.586;10.052;2023-07-20T08:46:05;8.25;;;7.53;;
47239;SDS011;32978;53.586;10.052;2023-07-20T08:51:01;12.90;;;7.55;;
47239;SDS011;32978;53.586;10.052;2023-07-20T08:55:58;10.32;;;7.47;;
47239;SDS011;32978;53.586;10.052;2023-07-20T09:00:55;8.60;;;7.90;;
47239;SDS011;32978;53.586;10.052;2023-07-20T09:05:55;10.95;;;7.80;;
47239;SDS011;32978;53.586;10.052;2023-07-20T09:10:51;13.57;;;8.77;;
47239;SDS011;32978;53.586;10.052;2023-07-20T09:15:48;11.68;;;8.48;;
47239;SDS011;32978;53.586;10.052;2023-07-20T09:20:49;8.32;;;7.43;;
47239;SDS011;32978;53.586;10.052;2023-07-20T09:25:47;16.33;;;7.55;;
47239;SDS011;32978;53.586;10.052;2023-07-20T09:30:46;9.77;;;7.03;;
47239;SDS011;32978;53.586;10.052;2023-07-20T09:35:49;7.97;;;6.88;;
47239;SDS011;32978;53.586;10.052;2023-07-20T09:46:40;7.93;;;7.22;;
47239;SDS011;32978;53.586;10.052;2023-07-20T09:56:36;8.65;;;5.70;;
47239;SDS011;32978;53.586;10.052;2023-07-20T10:01:32;6.38;;;5.78;;
47239;SDS011;32978;53.586;10.052;2023-07-20T10:06:30;8.15;;;6.30;;
47239;SDS011;32978;53.586;10.052;2023-07-20T10:11:30;27.00;;;8.75;;
47239;SDS011;32978;53.586;10.052;2023-07-20T10:16:28;8.20;;;6.88;;
47239;SDS011;32978;53.586;10.052;2023-07-20T10:21:25;7.35;;;6.47;;
47239;SDS011;32978;53.586;10.052;2023-07-20T10:26:25;8.43;;;6.20;;
47239;SDS011;32978;53.586;10.052;2023-07-20T10:31:22;7.45;;;6.72;;
47239;SDS011;32978;53.586;10.052;2023-07-20T10:36:25;7.82;;;6.45;;
47239;SDS011;32978;53.586;10.052;2023-07-20T10:41:28;6.95;;;5.93;;
47239;SDS011;32978;53.586;10.052;2023-07-20T11:02:59;9.35;;;6.47;;
47239;SDS011;32978;53.586;10.052;2023-07-20T11:13:20;7.00;;;6.30;;
47239;SDS011;32978;53.586;10.052;2023-07-20T11:18:17;6.88;;;5.82;;
47239;SDS011;32978;53.586;10.052;2023-07-20T11:23:15;6.60;;;6.07;;
47239;SDS011;32978;53.586;10.052;2023-07-20T11:28:12;6.60;;;6.15;;
47239;SDS011;32978;53.586;10.052;2023-07-20T11:33:08;6.82;;;6.13;;
47239;SDS011;32978;53.586;10.052;2023-07-20T11:38:04;6.30;;;5.80;;
47239;SDS011;32978;53.586;10.052;2023-07-20T11:43:03;6.50;;;5.90;;
47239;SDS011;32978;53.586;10.052;2023-07-20T11:48:05;6.53;;;5.97;;
47239;SDS011;32978;53.586;10.052;2023-07-20T11:53:02;14.02;;;6.47;;
47239;SDS011;32978;53.586;10.052;2023-07-20T11:58:04;7.30;;;5.30;;
47239;SDS011;32978;53.586;10.052;2023-07-20T12:03:01;6.53;;;5.53;;
47239;SDS011;32978;53.586;10.052;2023-07-20T12:07:58;6.40;;;5.80;;
47239;SDS011;32978;53.586;10.052;2023-07-20T12:12:55;6.57;;;5.85;;
47239;SDS011;32978;53.586;10.052;2023-07-20T12:18:03;7.40;;;6.30;;
47239;SDS011;32978;53.586;10.052;2023-07-20T12:23:20;8.20;;;6.40;;
47239;SDS011;32978;53.586;10.052;2023-07-20T12:28:21;7.72;;;6.97;;
47239;SDS011;32978;53.586;10.052;2023-07-20T12:33:21;6.90;;;6.30;;
47239;SDS011;32978;53.586;10.052;2023-07-20T12:38:24;7.35;;;6.07;;
47239;SDS011;32978;53.586;10.052;2023-07-20T12:43:25;7.22;;;6.50;;
47239;SDS011;32978;53.586;10.052;2023-07-20T12:48:26;8.25;;;6.35;;
47239;SDS011;32978;53.586;10.052;2023-07-20T12:53:25;8.93;;;6.10;;
47239;SDS011;32978;53.586;10.052;2023-07-20T12:58:22;9.25;;;5.45;;
47239;SDS011;32978;53.586;10.052;2023-07-20T13:03:25;6.85;;;5.38;;
47239;SDS011;32978;53.586;10.052;2023-07-20T13:08:29;8.02;;;5.68;;
47239;SDS011;32978;53.586;10.052;2023-07-20T13:13:26;8.15;;;6.65;;
47239;SDS011;32978;53.586;10.052;2023-07-20T13:18:22;6.60;;;5.82;;
47239;SDS011;32978;53.586;10.052;2023-07-20T13:23:19;6.22;;;5.72;;
47239;SDS011;32978;53.586;10.052;2023-07-20T13:28:16;6.13;;;5.40;;
47239;SDS011;32978;53.586;10.052;2023-07-20T13:33:16;5.82;;;5.28;;
47239;SDS011;32978;53.586;10.052;2023-07-20T13:38:18;6.80;;;5.88;;
47239;SDS011;32978;53.586;10.052;2023-07-20T13:43:18;6.35;;;5.50;;
47239;SDS011;32978;53.586;10.052;2023-07-20T13:48:15;7.93;;;6.45;;
47239;SDS011;32978;53.586;10.052;2023-07-20T13:53:21;6.93;;;6.28;;
47239;SDS011;32978;53.586;10.052;2023-07-20T13:58:24;7.22;;;6.50;;
47239;SDS011;32978;53.586;10.052;2023-07-20T14:03:23;7.13;;;6.40;;
47239;SDS011;32978;53.586;10.052;2023-07-20T14:08:20;7.45;;;5.72;;
47239;SDS011;32978;53.586;10.052;2023-07-20T14:13:17;7.07;;;6.00;;
47239;SDS011;32978;53.586;10.052;2023-07-20T14:18:33;6.07;;;5.57;;
47239;SDS011;32978;53.586;10.052;2023-07-20T14:23:35;6.38;;;5.78;;
47239;SDS011;32978;53.586;10.052;2023-07-20T14:28:33;6.82;;;6.13;;
47239;SDS011;32978;53.586;10.052;2023-07-20T14:33:29;6.40;;;5.90;;
47239;SDS011;32978;53.586;10.052;2023-07-20T14:38:34;6.80;;;6.20;;
47239;SDS011;32978;53.586;10.052;2023-07-20T14:43:34;6.50;;;6.00;;
47239;SDS011;32978;53.586;10.052;2023-07-20T14:48:32;5.90;;;5.50;;
47239;SDS011;32978;53.586;10.052;2023-07-20T14:53:29;17.00;;;6.00;;
47239;SDS011;32978;53.586;10.052;2023-07-20T15:03:31;7.15;;;5.90;;
47239;SDS011;32978;53.586;10.052;2023-07-20T15:08:28;6.90;;;5.70;;
47239;SDS011;32978;53.586;10.052;2023-07-20T15:13:25;6.20;;;5.65;;
47239;SDS011;32978;53.586;10.052;2023-07-20T15:18:25;5.95;;;5.45;;
47239;SDS011;32978;53.586;10.052;2023-07-20T15:23:43;6.43;;;5.55;;
47239;SDS011;32978;53.586;10.052;2023-07-20T15:28:45;10.23;;;5.72;;
47239;SDS011;32978;53.586;10.052;2023-07-20T15:33:45;6.35;;;5.75;;
47239;SDS011;32978;53.586;10.052;2023-07-20T15:38:47;6.43;;;5.78;;
47239;SDS011;32978;53.586;10.052;2023-07-20T15:43:46;6.43;;;5.35;;
47239;SDS011;32978;53.586;10.052;2023-07-20T15:48:45;6.95;;;5.35;;
47239;SDS011;32978;53.586;10.052;2023-07-20T15:53:43;5.85;;;5.32;;
47239;SDS011;32978;53.586;10.052;2023-07-20T15:58:40;6.93;;;4.90;;
47239;SDS011;32978;53.586;10.052;2023-07-20T16:03:37;8.60;;;5.57;;
47239;SDS011;32978;53.586;10.052;2023-07-20T16:08:34;14.93;;;5.80;;
47239;SDS011;32978;53.586;10.052;2023-07-20T16:13:31;7.75;;;5.78;;
47239;SDS011;32978;53.586;10.052;2023-07-20T16:18:36;9.02;;;6.28;;
47239;SDS011;32978;53.586;10.052;2023-07-20T16:23:38;8.98;;;5.40;;
47239;SDS011;32978;53.586;10.052;2023-07-20T16:28:44;6.40;;;5.40;;
47239;SDS011;32978;53.586;10.052;2023-07-20T16:33:44;6.95;;;5.70;;
47239;SDS011;32978;53.586;10.052;2023-07-20T16:38:45;6.73;;;5.60;;
47239;SDS011;32978;53.586;10.052;2023-07-20T16:43:42;6.35;;;5.75;;
47239;SDS011;32978;53.586;10.052;2023-07-20T16:48:41;8.30;;;6.05;;
47239;SDS011;32978;53.586;10.052;2023-07-20T16:53:49;6.85;;;6.25;;
47239;SDS011;32978;53.586;10.052;2023-07-20T16:58:49;9.98;;;5.95;;
47239;SDS011;32978;53.586;10.052;2023-07-20T17:03:49;8.00;;;7.15;;
47239;SDS011;32978;53.586;10.052;2023-07-20T17:08:52;8.15;;;5.22;;
47239;SDS011;32978;53.586;10.052;2023-07-20T17:14:25;6.47;;;5.25;;
47239;SDS011;32978;53.586;10.052;2023-07-20T17:19:22;7.70;;;5.20;;
47239;SDS011;32978;53.586;10.052;2023-07-20T17:24:28;8.43;;;5.70;;
47239;SDS011;32978;53.586;10.052;2023-07-20T17:29:27;6.03;;;5.20;;
47239;SDS011;32978;53.586;10.052;2023-07-20T17:34:24;6.47;;;5.15;;
47239;SDS011;32978;53.586;10.052;2023-07-20T17:39:20;6.68;;;5.20;;
47239;SDS011;32978;53.586;10.052;2023-07-20T17:44:17;6.75;;;5.65;;
47239;SDS011;32978;53.586;10.052;2023-07-20T17:49:14;7.20;;;5.97;;
47239;SDS011;32978;53.586;10.052;2023-07-20T17:54:10;16.80;;;6.28;;
47239;SDS011;32978;53.586;10.052;2023-07-20T17:59:08;13.32;;;5.95;;
47239;SDS011;32978;53.586;10.052;2023-07-20T18:04:04;7.40;;;4.95;;
47239;SDS011;32978;53.586;10.052;2023-07-20T18:09:04;6.90;;;5.00;;
47239;SDS011;32978;53.586;10.052;2023-07-20T18:14:03;9.98;;;5.00;;
47239;SDS011;32978;53.586;10.052;2023-07-20T18:19:03;7.18;;;5.22;;
47239;SDS011;32978;53.586;10.052;2023-07-20T18:24:00;8.02;;;5.38;;
47239;SDS011;32978;53.586;10.052;2023-07-20T18:28:56;6.53;;;5.00;;
47239;SDS011;32978;53.586;10.052;2023-07-20T18:33:52;10.40;;;5.15;;
47239;SDS011;32978;53.586;10.052;2023-07-20T18:38:50;6.82;;;4.35;;
47239;SDS011;32978;53.586;10.052;2023-07-20T18:43:46;9.70;;;5.03;;
47239;SDS011;32978;53.586;10.052;2023-07-20T18:48:42;5.90;;;4.75;;
47239;SDS011;32978;53.586;10.052;2023-07-20T18:53:43;5.65;;;4.82;;
47239;SDS011;32978;53.586;10.052;2023-07-20T18:58:40;6.55;;;5.50;;
47239;SDS011;32978;53.586;10.052;2023-07-20T19:03:36;8.32;;;5.03;;
47239;SDS011;32978;53.586;10.052;2023-07-20T19:08:33;6.70;;;4.93;;
47239;SDS011;32978;53.586;10.052;2023-07-20T19:13:30;5.82;;;4.47;;
47239;SDS011;32978;53.586;10.052;2023-07-20T19:18:26;7.72;;;4.53;;
47239;SDS011;32978;53.586;10.052;2023-07-20T19:23:23;5.18;;;4.03;;
47239;SDS011;32978;53.586;10.052;2023-07-20T19:28:20;5.97;;;5.13;;
47239;SDS011;32978;53.586;10.052;2023-07-20T19:33:18;9.68;;;5.72;;
47239;SDS011;32978;53.586;10.052;2023-07-20T19:38:21;8.63;;;4.70;;
47239;SDS011;32978;53.586;10.052;2023-07-20T19:43:20;10.27;;;6.53;;
47239;SDS011;32978;53.586;10.052;2023-07-20T19:48:20;6.90;;;4.88;;
47239;SDS011;32978;53.586;10.052;2023-07-20T19:53:17;9.27;;;6.70;;
47239;SDS011;32978;53.586;10.052;2023-07-20T19:58:16;6.25;;;4.75;;
47239;SDS011;32978;53.586;10.052;2023-07-20T20:03:13;5.15;;;4.65;;
47239;SDS011;32978;53.586;10.052;2023-07-20T20:08:12;5.65;;;5.00;;
47239;SDS011;32978;53.586;10.052;2023-07-20T20:13:12;9.13;;;5.65;;
47239;SDS011;32978;53.586;10.052;2023-07-20T20:18:09;8.02;;;6.28;;
47239;SDS011;32978;53.586;10.052;2023-07-20T20:23:08;8.30;;;5.75;;
47239;SDS011;32978;53.586;10.052;2023-07-20T20:28:10;7.28;;;5.18;;
47239;SDS011;32978;53.586;10.052;2023-07-20T20:33:06;5.80;;;5.22;;
47239;SDS011;32978;53.586;10.052;2023-07-20T20:38:03;5.22;;;4.72;;
47239;SDS011;32978;53.586;10.052;2023-07-20T20:42:59;6.00;;;5.25;;
47239;SDS011;32978;53.586;10.052;2023-07-20T20:47:55;7.38;;;5.47;;
47239;SDS011;32978;53.586;10.052;2023-07-20T20:52:58;5.22;;;4.35;;
47239;SDS011;32978;53.586;10.052;2023-07-20T20:57:54;7.45;;;4.82;;
47239;SDS011;32978;53.586;10.052;2023-07-20T21:02:54;60.45;;;31.20;;
47239;SDS011;32978;53.586;10.052;2023-07-20T21:07:54;7.25;;;5.70;;
47239;SDS011;32978;53.586;10.052;2023-07-20T21:12:54;6.43;;;4.80;;
47239;SDS011;32978;53.586;10.052;2023-07-20T21:17:50;8.35;;;4.53;;
47239;SDS011;32978;53.586;10.052;2023-07-20T21:22:46;5.15;;;4.50;;
47239;SDS011;32978;53.586;10.052;2023-07-20T21:27:46;8.30;;;4.53;;
47239;SDS011;32978;53.586;10.052;2023-07-20T21:32:42;6.30;;;5.10;;
47239;SDS011;32978;53.586;10.052;2023-07-20T21:37:41;8.27;;;4.63;;
47239;SDS011;32978;53.586;10.052;2023-07-20T21:42:39;6.93;;;4.32;;
47239;SDS011;32978;53.586;10.052;2023-07-20T21:47:35;5.78;;;5.00;;
47239;SDS011;32978;53.586;10.052;2023-07-20T21:52:31;7.00;;;4.70;;
47239;SDS011;32978;53.586;10.052;2023-07-20T21:57:28;5.35;;;4.88;;
47239;SDS011;32978;53.586;10.052;2023-07-20T22:02:24;7.55;;;5.38;;
47239;SDS011;32978;53.586;10.052;2023-07-20T22:07:23;6.35;;;4.85;;
47239;SDS011;32978;53.586;10.052;2023-07-20T22:12:19;6.15;;;4.60;;
47239;SDS011;32978;53.586;10.052;2023-07-20T22:17:15;7.10;;;5.47;;
47239;SDS011;32978;53.586;10.052;2023-07-20T22:22:12;5.35;;;4.90;;
47239;SDS011;32978;53.586;10.052;2023-07-20T22:27:10;6.70;;;4.82;;
47239;SDS011;32978;53.586;10.052;2023-07-20T22:32:06;5.80;;;5.20;;
47239;SDS011;32978;53.586;10.052;2023-07-20T22:37:03;5.30;;;4.80;;
47239;SDS011;32978;53.586;10.052;2023-07-20T22:42:01;5.57;;;5.03;;
47239;SDS011;32978;53.586;10.052;2023-07-20T22:46:58;5.72;;;4.63;;
47239;SDS011;32978;53.586;10.052;2023-07-20T22:51:55;6.30;;;5.13;;
47239;SDS011;32978;53.586;10.052;2023-07-20T22:56:51;7.80;;;5.47;;
47239;SDS011;32978;53.586;10.052;2023-07-20T23:01:47;6.82;;;5.10;;
47239;SDS011;32978;53.586;10.052;2023-07-20T23:06:44;13.75;;;6.78;;
47239;SDS011;32978;53.586;10.052;2023-07-20T23:11:40;7.32;;;5.47;;
47239;SDS011;32978;53.586;10.052;2023-07-20T23:16:37;53.25;;;23.77;;
47239;SDS011;32978;53.586;10.052;2023-07-20T23:21:33;20.77;;;11.75;;
47239;SDS011;32978;53.586;10.052;2023-07-20T23:26:30;19.02;;;11.13;;
47239;SDS011;32978;53.586;10.052;2023-07-20T23:31:26;8.52;;;6.55;;
47239;SDS011;32978;53.586;10.052;2023-07-20T23:36:23;6.32;;;5.32;;
47239;SDS011;32978;53.586;10.052;2023-07-20T23:41:20;6.40;;;5.20;;
47239;SDS011;32978;53.586;10.052;2023-07-20T23:46:16;6.38;;;5.40;;
47239;SDS011;32978;53.586;10.052;2023-07-20T23:51:19;7.30;;;5.47;;
47239;SDS011;32978;53.586;10.052;2023-07-20T23:56:16;11.10;;;7.35;;
